Time;durP1;ratioP1;P1;durP2;ratioP2;P2;SDS_P1;SDS_P2;PMS_P1;PMS_P2;Temp;Humidity;BMP_temperature;BMP_pressure;BME280_temperature;BME280_humidity;BME280_pressure;Samples;Min_cycle;Max_cycle;Signal;HPM_P1;HPM_P2
2022/03/17 00:01:06;;;;;;;32.13;26.90;;;10.00;99.90;;;;;;5072171;28;20930;-58
2022/03/17 00:03:46;;;;;;;30.93;25.73;;;10.00;99.90;;;;;;5073100;28;20444;-58
2022/03/17 00:06:13;;;;;;;30.00;26.13;;;10.00;99.90;;;;;;5072843;28;21064;-57
2022/03/17 00:08:40;;;;;;;31.47;26.63;;;10.00;99.90;;;;;;5073041;28;20464;-58
2022/03/17 00:11:08;;;;;;;29.23;24.40;;;10.00;99.90;;;;;;5072944;28;20960;-58
2022/03/17 00:13:36;;;;;;;29.73;26.47;;;10.00;99.90;;;;;;5072973;28;20934;-57
2022/03/17 00:16:05;;;;;;;33.80;26.80;;;10.10;99.90;;;;;;5073370;28;20476;-58
2022/03/17 00:18:32;;;;;;;30.27;26.70;;;10.10;99.90;;;;;;5072892;28;20464;-58
2022/03/17 00:20:59;;;;;;;32.67;26.23;;;10.10;99.90;;;;;;5073311;28;20457;-58
2022/03/17 00:23:27;;;;;;;31.80;27.30;;;10.10;99.90;;;;;;5073375;28;20791;-58
2022/03/17 00:25:54;;;;;;;35.50;27.90;;;10.10;99.90;;;;;;5072895;28;20462;-58
2022/03/17 00:28:21;;;;;;;32.37;28.03;;;10.10;99.90;;;;;;5073076;28;20464;-57
2022/03/17 00:30:49;;;;;;;31.57;26.60;;;10.10;99.90;;;;;;5073459;28;20476;-57
2022/03/17 00:33:17;;;;;;;35.70;29.80;;;10.00;99.90;;;;;;5073130;28;20807;-57
2022/03/17 00:35:44;;;;;;;31.53;27.23;;;10.10;99.90;;;;;;5073024;28;20464;-57
2022/03/17 00:38:14;;;;;;;32.33;27.60;;;10.00;99.90;;;;;;5072744;28;20479;-56
2022/03/17 00:40:42;;;;;;;36.53;25.67;;;;;;;;;;5072772;28;20931;-55
2022/03/17 00:43:12;;;;;;;30.97;27.40;;;10.00;99.90;;;;;;5072899;28;20456;-55
2022/03/17 00:45:39;;;;;;;31.53;27.73;;;9.90;99.90;;;;;;5072925;28;20521;-55
2022/03/17 00:48:08;;;;;;;32.70;28.50;;;10.00;99.90;;;;;;5072915;28;20476;-55
2022/03/17 00:50:36;;;;;;;32.00;27.80;;;9.90;99.90;;;;;;5072862;28;20970;-55
2022/03/17 00:53:04;;;;;;;30.80;27.13;;;9.90;99.90;;;;;;5073040;28;20449;-55
2022/03/17 00:55:32;;;;;;;34.13;26.80;;;9.90;99.90;;;;;;5072764;28;20984;-55
2022/03/17 00:57:59;;;;;;;35.07;28.13;;;10.00;99.90;;;;;;5072367;28;20846;-56
2022/03/17 01:00:27;;;;;;;34.73;26.10;;;10.00;99.90;;;;;;5072510;28;20440;-56
2022/03/17 01:02:56;;;;;;;33.33;27.47;;;10.00;99.90;;;;;;5072898;28;20452;-55
2022/03/17 01:05:25;;;;;;;32.13;27.97;;;10.00;99.90;;;;;;5072726;28;20521;-55
2022/03/17 01:07:54;;;;;;;35.00;28.90;;;10.00;99.90;;;;;;5072759;28;20468;-56
2022/03/17 01:10:21;;;;;;;30.70;26.47;;;9.90;99.90;;;;;;5072406;28;20939;-56
2022/03/17 01:12:50;;;;;;;31.87;28.03;;;9.90;99.90;;;;;;5074515;28;20531;-56
2022/03/17 01:15:21;;;;;;;31.90;26.57;;;9.90;99.90;;;;;;5076076;28;20463;-56
2022/03/17 01:17:48;;;;;;;29.60;26.43;;;9.90;99.90;;;;;;5076283;28;20526;-56
2022/03/17 01:20:15;;;;;;;30.43;27.10;;;10.00;99.90;;;;;;5076086;28;20967;-56
2022/03/17 01:22:43;;;;;;;34.70;27.80;;;9.90;99.90;;;;;;5076219;28;20448;-56
2022/03/17 01:25:10;;;;;;;32.83;26.03;;;9.90;99.90;;;;;;5075811;28;20821;-55
2022/03/17 01:27:37;;;;;;;36.43;28.57;;;9.80;99.90;;;;;;5075853;28;20472;-56
2022/03/17 01:30:07;;;;;;;33.40;27.37;;;9.90;99.90;;;;;;5076092;28;20452;-56
2022/03/17 01:32:35;;;;;;;32.47;28.00;;;9.90;99.90;;;;;;5075968;28;20492;-56
2022/03/17 01:35:02;;;;;;;34.40;27.40;;;9.90;99.90;;;;;;5075993;28;20460;-55
2022/03/17 01:37:29;;;;;;;34.50;28.43;;;9.90;99.90;;;;;;5075784;28;20465;-56
2022/03/17 01:39:57;;;;;;;31.70;26.30;;;9.90;99.90;;;;;;5075954;28;20470;-55
2022/03/17 01:42:24;;;;;;;31.20;27.77;;;9.90;99.90;;;;;;5075602;28;20440;-55
2022/03/17 01:44:51;;;;;;;31.30;26.87;;;9.70;99.90;;;;;;5075731;28;20498;-56
2022/03/17 01:47:32;;;;;;;33.47;28.27;;;9.80;99.90;;;;;;5075407;28;20472;-56
2022/03/17 01:50:00;;;;;;;31.60;26.50;;;9.80;99.90;;;;;;5075500;28;20482;-56
2022/03/17 01:52:27;;;;;;;32.07;26.83;;;9.80;99.90;;;;;;5075773;28;20545;-56
2022/03/17 01:54:54;;;;;;;30.77;27.50;;;9.80;99.90;;;;;;5075674;28;20548;-56
2022/03/17 01:57:24;;;;;;;28.90;24.67;;;9.80;99.90;;;;;;5075029;28;20978;-56
2022/03/17 01:59:52;;;;;;;35.40;27.30;;;9.70;99.90;;;;;;5075610;28;20452;-56
2022/03/17 02:02:19;;;;;;;35.53;28.37;;;9.70;99.90;;;;;;5075335;28;20927;-55
2022/03/17 02:04:48;;;;;;;31.10;27.10;;;9.70;99.90;;;;;;5075356;28;20886;-55
2022/03/17 02:07:16;;;;;;;34.73;27.73;;;9.70;99.90;;;;;;5075341;28;20463;-56
2022/03/17 02:09:45;;;;;;;32.90;27.10;;;9.70;99.90;;;;;;5075494;28;20526;-55
2022/03/17 02:15:00;;;;;;;34.30;27.03;;;9.70;99.90;;;;;;5075155;28;20446;-56
2022/03/17 02:17:30;;;;;;;36.50;29.07;;;9.60;99.90;;;;;;5075141;28;20468;-56
2022/03/17 02:19:58;;;;;;;31.80;26.73;;;9.60;99.90;;;;;;5075035;28;20837;-56
2022/03/17 02:22:26;;;;;;;31.07;25.57;;;9.70;99.90;;;;;;5075214;28;20452;-56
2022/03/17 02:27:45;;;;;;;34.90;27.97;;;9.50;99.90;;;;;;5074823;28;20459;-55
2022/03/17 02:30:13;;;;;;;32.10;28.00;;;9.50;99.90;;;;;;5075046;28;20433;-55
2022/03/17 02:32:41;;;;;;;33.17;27.53;;;9.60;99.90;;;;;;5074996;28;20834;-55
2022/03/17 02:35:12;;;;;;;36.70;27.00;;;9.60;99.90;;;;;;5074566;28;20456;-55
2022/03/17 02:37:39;;;;;;;31.60;27.40;;;9.60;99.90;;;;;;5074671;28;20472;-55
2022/03/17 02:40:10;;;;;;;34.03;27.53;;;9.60;99.90;;;;;;5074586;28;21006;-56
2022/03/17 02:42:38;;;;;;;33.60;28.80;;;9.60;99.90;;;;;;5074872;28;20429;-56
2022/03/17 02:45:08;;;;;;;32.23;27.40;;;9.60;99.90;;;;;;5074700;28;20851;-56
2022/03/17 02:47:35;;;;;;;34.13;28.50;;;9.60;99.90;;;;;;5074233;28;20468;-56
2022/03/17 02:50:03;;;;;;;36.57;28.67;;;9.50;99.90;;;;;;5074367;28;21029;-56
2022/03/17 02:52:30;;;;;;;33.40;28.10;;;9.50;99.90;;;;;;5074042;28;20489;-56
2022/03/17 02:54:57;;;;;;;31.10;25.60;;;9.50;99.90;;;;;;5074460;28;20459;-56
2022/03/17 02:57:26;;;;;;;32.40;27.53;;;9.60;99.90;;;;;;5074111;28;20510;-55
2022/03/17 02:59:53;;;;;;;37.87;28.60;;;9.50;99.90;;;;;;5074326;28;20451;-55
2022/03/17 03:02:20;;;;;;;31.00;26.20;;;9.60;99.90;;;;;;5074002;28;20487;-55
2022/03/17 03:04:47;;;;;;;30.90;26.83;;;9.60;99.90;;;;;;5074230;28;20452;-56
2022/03/17 03:07:14;;;;;;;34.20;27.60;;;9.60;99.90;;;;;;5073850;28;20470;-56
2022/03/17 03:09:42;;;;;;;35.90;28.30;;;9.50;99.90;;;;;;5074134;28;20482;-56
2022/03/17 03:12:10;;;;;;;38.77;30.10;;;9.50;99.90;;;;;;5073924;28;20483;-56
2022/03/17 03:14:39;;;;;;;34.90;27.90;;;9.50;99.90;;;;;;5074118;28;20448;-56
2022/03/17 03:17:07;;;;;;;32.73;27.73;;;9.50;99.90;;;;;;5073642;28;20543;-56
2022/03/17 03:19:34;;;;;;;32.13;27.93;;;9.50;99.90;;;;;;5073850;28;20535;-60
2022/03/17 03:22:01;;;;;;;36.00;28.03;;;9.50;99.90;;;;;;5074089;28;20558;-55
2022/03/17 03:24:28;;;;;;;34.43;28.90;;;9.50;99.90;;;;;;5073591;28;20455;-55
2022/03/17 03:26:55;;;;;;;34.47;28.53;;;9.60;99.90;;;;;;5073979;28;20494;-55
2022/03/17 03:29:23;;;;;;;37.70;29.00;;;9.50;99.90;;;;;;5073984;28;20445;-55
2022/03/17 03:31:53;;;;;;;32.87;27.70;;;9.60;99.90;;;;;;5073706;28;20492;-56
2022/03/17 03:34:21;;;;;;;34.80;27.93;;;9.60;99.90;;;;;;5073471;28;20432;-56
2022/03/17 03:39:34;;;;;;;32.93;27.17;;;9.60;99.90;;;;;;5073726;28;20467;-56
2022/03/17 03:42:01;;;;;;;38.10;28.50;;;9.60;99.90;;;;;;5073649;28;20521;-56
2022/03/17 03:44:28;;;;;;;34.13;28.40;;;9.50;99.90;;;;;;5073270;28;20934;-56
2022/03/17 03:46:57;;;;;;;33.60;27.77;;;9.60;99.90;;;;;;5073327;28;20464;-57
2022/03/17 03:49:24;;;;;;;30.90;25.97;;;9.50;99.90;;;;;;5073277;28;20455;-55
2022/03/17 03:51:52;;;;;;;33.37;27.50;;;9.60;99.90;;;;;;5073391;28;20483;-55
2022/03/17 03:54:19;;;;;;;31.07;27.40;;;9.50;99.90;;;;;;5073646;28;20452;-56
2022/03/17 03:56:49;;;;;;;35.47;28.53;;;9.50;99.90;;;;;;5073159;28;20476;-56
2022/03/17 03:59:18;;;;;;;35.43;28.40;;;9.50;99.90;;;;;;5073466;28;20448;-56
2022/03/17 04:01:45;;;;;;;32.53;26.57;;;9.50;99.90;;;;;;5073210;28;20501;-56
2022/03/17 04:04:17;;;;;;;39.33;29.00;;;9.50;99.90;;;;;;5073525;28;20451;-55
2022/03/17 04:06:46;;;;;;;39.80;28.17;;;9.60;99.90;;;;;;5072976;28;20814;-55
2022/03/17 04:09:13;;;;;;;32.93;26.17;;;9.60;99.90;;;;;;5072994;28;20821;-55
2022/03/17 04:11:41;;;;;;;33.17;28.60;;;9.60;99.90;;;;;;5073072;28;20476;-55
2022/03/17 04:14:09;;;;;;;40.03;31.50;;;9.60;99.90;;;;;;5073278;28;20450;-56
2022/03/17 04:16:36;;;;;;;37.23;27.87;;;9.60;99.90;;;;;;5072883;28;20942;-57
2022/03/17 04:19:03;;;;;;;33.93;27.53;;;9.50;99.90;;;;;;5073045;28;20445;-55
2022/03/17 04:21:32;;;;;;;35.70;28.80;;;9.50;99.90;;;;;;5072902;28;20441;-56
2022/03/17 04:24:00;;;;;;;39.07;28.73;;;9.50;99.90;;;;;;5073187;28;20458;-55
2022/03/17 04:26:28;;;;;;;36.67;28.33;;;9.50;99.90;;;;;;5072923;28;20448;-55
2022/03/17 04:28:56;;;;;;;35.13;27.43;;;9.50;99.90;;;;;;5073160;28;20502;-55
2022/03/17 04:31:23;;;;;;;35.73;28.27;;;9.50;99.90;;;;;;5072958;28;20455;-56
2022/03/17 04:33:50;;;;;;;40.57;29.40;;;9.50;99.90;;;;;;5073243;28;20448;-55
2022/03/17 04:36:18;;;;;;;35.47;27.80;;;9.50;99.90;;;;;;5072650;28;20452;-56
2022/03/17 04:38:47;;;;;;;34.00;27.63;;;9.50;99.90;;;;;;5072828;28;20455;-56
2022/03/17 04:41:17;;;;;;;31.20;26.90;;;9.50;99.90;;;;;;5072990;28;20448;-55
2022/03/17 04:43:44;;;;;;;37.30;27.60;;;9.60;99.90;;;;;;5073317;28;20476;-56
2022/03/17 04:46:12;;;;;;;39.20;29.30;;;9.60;99.90;;;;;;5072949;28;20480;-56
2022/03/17 04:48:39;;;;;;;29.93;26.00;;;9.60;99.90;;;;;;5075722;28;20474;-55
2022/03/17 04:51:06;;;;;;;38.93;27.53;;;9.50;99.90;;;;;;5076960;28;20785;-55
2022/03/17 04:53:34;;;;;;;36.80;28.37;;;9.50;99.90;;;;;;5076692;28;20498;-56
2022/03/17 04:56:04;;;;;;;31.40;27.70;;;9.50;99.90;;;;;;5076264;28;20958;-56
2022/03/17 04:58:32;;;;;;;33.33;28.00;;;9.50;99.90;;;;;;5076787;28;20468;-56
2022/03/17 05:01:00;;;;;;;34.10;28.67;;;9.50;99.90;;;;;;5076326;28;20530;-56
2022/03/17 05:03:28;;;;;;;35.63;27.33;;;9.50;99.90;;;;;;5076608;28;20439;-56
2022/03/17 05:05:55;;;;;;;37.37;30.03;;;9.40;99.90;;;;;;5076459;28;20509;-55
2022/03/17 05:08:23;;;;;;;38.77;28.47;;;9.40;99.90;;;;;;5076546;28;20558;-56
2022/03/17 05:10:52;;;;;;;35.97;28.60;;;9.40;99.90;;;;;;5076441;28;20448;-56
2022/03/17 05:13:22;;;;;;;42.83;29.67;;;9.40;99.90;;;;;;5076364;28;20571;-55
2022/03/17 05:15:51;;;;;;;35.97;27.50;;;9.50;99.90;;;;;;5076989;28;20440;-57
2022/03/17 05:18:19;;;;;;;35.17;27.27;;;9.40;99.90;;;;;;5075945;28;20550;-56
2022/03/17 05:20:46;;;;;;;37.00;29.67;;;9.40;99.90;;;;;;5076245;28;20812;-55
2022/03/17 05:23:15;;;;;;;39.13;28.27;;;9.40;99.90;;;;;;5076298;28;20444;-55
2022/03/17 05:25:43;;;;;;;37.80;30.43;;;9.40;99.90;;;;;;5075913;28;20459;-55
2022/03/17 05:28:11;;;;;;;37.47;29.60;;;9.40;99.90;;;;;;5075762;28;20970;-55
2022/03/17 05:30:41;;;;;;;38.43;29.00;;;9.40;99.90;;;;;;5075914;28;20452;-55
2022/03/17 05:33:11;;;;;;;39.73;28.53;;;9.50;99.90;;;;;;5076142;28;20480;-56
2022/03/17 05:35:38;;;;;;;35.07;28.47;;;9.50;99.90;;;;;;5075761;28;20470;-55
2022/03/17 05:38:05;;;;;;;39.60;28.57;;;9.50;99.90;;;;;;5075548;28;21037;-56
2022/03/17 05:40:33;;;;;;;34.50;27.53;;;9.50;99.90;;;;;;5075716;28;20931;-55
2022/03/17 05:43:01;;;;;;;37.10;30.00;;;9.50;99.90;;;;;;5075843;28;20512;-56
2022/03/17 05:45:30;;;;;;;40.57;29.63;;;9.50;99.90;;;;;;5075701;28;20467;-57
2022/03/17 05:48:00;;;;;;;39.63;30.43;;;9.50;99.90;;;;;;5075348;28;20986;-55
2022/03/17 05:50:29;;;;;;;41.70;29.73;;;9.40;99.90;;;;;;5075680;28;20455;-56
2022/03/17 05:52:56;;;;;;;39.50;29.30;;;9.40;99.90;;;;;;5075671;28;20484;-56
2022/03/17 05:55:26;;;;;;;42.50;31.17;;;9.40;99.90;;;;;;5075958;28;20455;-56
2022/03/17 05:57:55;;;;;;;36.80;29.90;;;9.40;99.90;;;;;;5075309;28;20579;-56
2022/03/17 06:00:25;;;;;;;34.07;27.67;;;9.40;99.90;;;;;;5075106;28;20939;-56
2022/03/17 06:02:53;;;;;;;35.20;27.07;;;9.40;99.90;;;;;;5075376;28;20444;-55
2022/03/17 06:05:22;;;;;;;38.00;29.83;;;9.40;99.90;;;;;;5075314;28;20556;-55
2022/03/17 06:07:50;;;;;;;39.60;28.57;;;9.40;99.90;;;;;;5075265;28;20525;-56
2022/03/17 06:10:21;;;;;;;35.13;28.27;;;9.40;99.90;;;;;;5074929;28;20444;-56
2022/03/17 06:12:51;;;;;;;37.50;28.80;;;9.50;99.90;;;;;;5075488;28;20491;-56
2022/03/17 06:15:24;;;;;;;40.43;30.80;;;9.40;99.90;;;;;;5074914;28;20453;-56
2022/03/17 06:17:53;;;;;;;39.67;31.43;;;9.50;99.90;;;;;;5074676;28;20460;-56
2022/03/17 06:20:23;;;;;;;35.93;29.97;;;9.50;99.90;;;;;;5074652;28;20930;-56
2022/03/17 06:22:52;;;;;;;45.93;27.27;;;9.50;99.90;;;;;;5075008;28;20444;-56
2022/03/17 06:25:21;;;;;;;36.83;29.47;;;9.50;99.90;;;;;;5074874;28;20449;-55
2022/03/17 06:27:49;;;;;;;43.03;29.13;;;9.50;99.90;;;;;;5074870;28;20478;-55
2022/03/17 06:30:18;;;;;;;39.10;28.20;;;9.50;99.90;;;;;;5074892;28;20829;-56
2022/03/17 06:32:45;;;;;;;37.37;29.20;;;9.50;99.90;;;;;;5074705;28;20553;-57
2022/03/17 06:35:17;;;;;;;42.37;31.70;;;9.50;99.90;;;;;;5074487;28;20543;-56
2022/03/17 06:37:47;;;;;;;34.60;27.70;;;9.40;99.90;;;;;;5074052;28;20867;-56
2022/03/17 06:40:15;;;;;;;45.43;31.00;;;9.50;99.90;;;;;;5074664;28;20491;-56
2022/03/17 06:42:43;;;;;;;33.53;27.17;;;9.50;99.90;;;;;;5074499;28;20463;-56
2022/03/17 06:45:11;;;;;;;35.03;29.93;;;9.60;99.90;;;;;;5074491;28;20450;-56
2022/03/17 06:47:38;;;;;;;39.27;28.30;;;9.60;99.90;;;;;;5074568;28;20500;-56
2022/03/17 06:50:07;;;;;;;33.07;28.27;;;9.60;99.90;;;;;;5073918;28;20451;-56
2022/03/17 06:52:34;;;;;;;38.57;29.30;;;9.60;99.90;;;;;;5074203;28;20883;-56
2022/03/17 06:55:03;;;;;;;36.70;29.87;;;9.60;99.90;;;;;;5074225;28;20520;-56
2022/03/17 06:57:32;;;;;;;38.17;27.53;;;9.60;99.90;;;;;;5073778;28;21008;-56
2022/03/17 06:59:59;;;;;;;41.20;32.83;;;9.60;99.90;;;;;;5074250;28;20440;-55
2022/03/17 07:02:26;;;;;;;37.13;31.03;;;9.70;99.90;;;;;;5074274;28;20784;-56
2022/03/17 07:04:53;;;;;;;35.83;27.77;;;9.70;99.90;;;;;;5073828;28;20545;-57
2022/03/17 07:07:20;;;;;;;42.70;30.03;;;9.70;99.90;;;;;;5073644;28;20992;-56
2022/03/17 07:09:47;;;;;;;38.40;31.33;;;9.70;99.90;;;;;;5073512;28;20440;-57
2022/03/17 07:12:16;;;;;;;39.20;28.87;;;9.70;99.90;;;;;;5073529;28;20448;-57
2022/03/17 07:14:43;;;;;;;38.00;29.97;;;9.70;99.90;;;;;;5073382;28;20547;-57
2022/03/17 07:17:10;;;;;;;40.53;32.27;;;9.80;99.90;;;;;;5073754;28;20460;-56
2022/03/17 07:19:37;;;;;;;40.80;31.23;;;9.90;99.90;;;;;;5073686;28;20945;-57
2022/03/17 07:22:07;;;;;;;39.13;30.37;;;9.70;99.90;;;;;;5073673;28;20809;-56
2022/03/17 07:24:34;;;;;;;41.20;30.77;;;9.70;99.90;;;;;;5073648;28;20535;-57
2022/03/17 07:27:02;;;;;;;37.97;29.90;;;9.80;99.90;;;;;;5073569;28;20499;-56
2022/03/17 07:29:31;;;;;;;37.93;31.77;;;9.70;99.90;;;;;;5073581;28;20527;-56
2022/03/17 07:31:58;;;;;;;39.70;28.10;;;9.70;99.90;;;;;;5073207;28;20452;-56
2022/03/17 07:34:26;;;;;;;36.63;29.53;;;9.80;99.90;;;;;;5073065;28;20484;-57
2022/03/17 07:36:53;;;;;;;45.90;31.63;;;9.80;99.90;;;;;;5073519;28;20487;-57
2022/03/17 07:39:20;;;;;;;38.13;29.87;;;9.80;99.90;;;;;;5073487;28;20466;-56
2022/03/17 07:41:47;;;;;;;39.47;31.83;;;9.70;99.90;;;;;;5073074;28;20448;-57
2022/03/17 07:44:15;;;;;;;37.17;30.23;;;9.70;99.90;;;;;;5073135;28;20444;-57
2022/03/17 07:46:43;;;;;;;42.80;31.93;;;9.80;99.90;;;;;;5073207;28;20468;-57
2022/03/17 07:49:10;;;;;;;41.87;33.13;;;9.90;99.90;;;;;;5072834;28;20448;-57
2022/03/17 07:51:39;;;;;;;43.60;32.30;;;10.00;99.90;;;;;;5072880;28;20459;-58
2022/03/17 07:54:07;;;;;;;39.77;32.13;;;9.90;99.90;;;;;;5072963;28;20475;-57
2022/03/17 07:56:35;;;;;;;42.43;31.50;;;10.00;99.90;;;;;;5072589;28;20515;-58
2022/03/17 07:59:03;;;;;;;41.70;31.90;;;10.00;99.90;;;;;;5072928;28;20432;-56
2022/03/17 08:01:30;;;;;;;43.00;31.60;;;10.20;99.90;;;;;;5072564;28;20462;-56
2022/03/17 08:03:58;;;;;;;43.63;32.70;;;10.20;99.90;;;;;;5072634;28;20447;-56
2022/03/17 08:06:26;;;;;;;42.27;30.80;;;10.20;99.90;;;;;;5072967;28;20551;-56
2022/03/17 08:08:55;;;;;;;40.70;31.30;;;10.20;99.90;;;;;;5073098;28;20460;-55
2022/03/17 08:11:23;;;;;;;46.23;32.57;;;10.20;99.90;;;;;;5072922;28;20651;-56
2022/03/17 08:13:50;;;;;;;39.10;32.07;;;10.20;99.90;;;;;;5072701;28;20486;-56
2022/03/17 08:16:18;;;;;;;42.10;33.20;;;10.20;99.90;;;;;;5072904;28;20448;-56
2022/03/17 08:18:45;;;;;;;41.00;30.83;;;10.20;99.90;;;;;;5072581;28;20935;-56
2022/03/17 08:21:14;;;;;;;48.40;32.40;;;10.30;99.90;;;;;;5072695;28;20952;-56
2022/03/17 08:23:41;;;;;;;42.20;31.97;;;10.30;99.90;;;;;;5076107;28;21007;-57
2022/03/17 08:26:08;;;;;;;42.97;33.00;;;10.30;99.90;;;;;;5076802;28;20539;-57
2022/03/17 08:28:36;;;;;;;43.33;32.03;;;10.20;99.90;;;;;;5076675;28;20468;-57
2022/03/17 08:31:03;;;;;;;39.63;31.77;;;10.30;99.90;;;;;;5076819;28;20547;-57
2022/03/17 08:33:30;;;;;;;41.10;31.03;;;10.40;99.90;;;;;;5076652;28;20571;-57
2022/03/17 08:35:57;;;;;;;41.10;31.43;;;10.50;99.90;;;;;;5076532;28;20459;-57
2022/03/17 08:38:25;;;;;;;41.30;31.60;;;10.60;99.90;;;;;;5076706;28;20479;-57
2022/03/17 08:40:52;;;;;;;42.33;31.87;;;10.70;99.90;;;;;;5076722;28;20454;-57
2022/03/17 08:43:20;;;;;;;46.00;31.10;;;10.60;99.90;;;;;;5076442;28;20843;-56
2022/03/17 08:51:17;;;;;;;40.73;33.30;;;10.70;99.90;;;;;;5076703;28;20941;-56
2022/03/17 08:53:46;;;;;;;36.60;29.73;;;10.70;99.90;;;;;;5076217;28;20484;-56
2022/03/17 08:56:13;;;;;;;43.70;33.13;;;10.70;99.90;;;;;;5076133;28;20775;-57
2022/03/17 08:58:40;;;;;;;41.33;30.07;;;10.70;99.90;;;;;;5076282;28;20536;-56
2022/03/17 09:01:07;;;;;;;43.50;31.30;;;10.70;99.90;;;;;;5076449;28;20523;-56
2022/03/17 09:03:35;;;;;;;40.60;29.90;;;10.60;99.90;;;;;;5076305;28;20448;-56
2022/03/17 09:06:02;;;;;;;39.83;31.40;;;10.70;99.90;;;;;;5076292;28;20491;-56
2022/03/17 09:08:29;;;;;;;42.00;33.97;;;10.70;99.90;;;;;;5075801;28;20464;-56
2022/03/17 09:10:58;;;;;;;38.47;29.70;;;10.70;99.90;;;;;;5076214;28;20444;-57
2022/03/17 09:13:26;;;;;;;37.90;29.80;;;10.80;99.90;;;;;;5076281;28;20487;-56
2022/03/17 09:15:54;;;;;;;42.83;30.60;;;10.90;99.90;;;;;;5076004;28;20504;-56
2022/03/17 09:18:22;;;;;;;46.20;31.13;;;11.00;99.90;;;;;;5076182;28;20857;-57
2022/03/17 09:20:52;;;;;;;39.90;32.40;;;11.00;99.90;;;;;;5075850;28;20444;-57
2022/03/17 09:23:20;;;;;;;39.97;30.87;;;11.00;99.90;;;;;;5076087;28;20535;-57
2022/03/17 09:25:48;;;;;;;42.13;30.90;;;11.00;99.90;;;;;;5075651;28;20887;-56
2022/03/17 09:28:16;;;;;;;45.37;33.50;;;11.00;99.90;;;;;;5075955;28;20526;-57
2022/03/17 09:30:43;;;;;;;37.97;31.20;;;11.00;99.90;;;;;;5076018;28;20833;-56
2022/03/17 09:33:11;;;;;;;39.90;29.97;;;11.00;99.90;;;;;;5075228;28;20483;-56
2022/03/17 09:35:38;;;;;;;39.00;31.23;;;11.00;99.90;;;;;;5075368;28;20452;-56
2022/03/17 09:38:07;;;;;;;38.33;30.00;;;11.00;99.90;;;;;;5075328;28;20468;-56
2022/03/17 09:40:35;;;;;;;36.77;29.77;;;11.00;99.90;;;;;;5075495;28;20484;-56
2022/03/17 09:43:22;;;;;;;41.07;30.37;;;11.10;99.90;;;;;;5075581;28;20459;-56
2022/03/17 09:45:54;;;;;;;42.67;30.60;;;11.10;99.90;;;;;;5075267;28;20424;-56
2022/03/17 09:48:23;;;;;;;36.07;27.67;;;11.30;99.90;;;;;;5075184;28;20559;-57
2022/03/17 09:50:55;;;;;;;34.80;28.70;;;11.40;99.90;;;;;;5075421;28;20531;-56
2022/03/17 09:53:23;;;;;;;36.40;30.60;;;11.50;99.90;;;;;;5075121;28;20471;-56
2022/03/17 09:55:50;;;;;;;39.07;30.90;;;11.40;99.90;;;;;;5075466;28;20535;-56
2022/03/17 09:58:17;;;;;;;33.70;28.67;;;11.50;99.90;;;;;;5075093;28;20566;-56
2022/03/17 10:00:52;;;;;;;34.87;28.63;;;11.60;99.90;;;;;;5075125;28;20445;-56
2022/03/17 10:03:25;;;;;;;43.23;31.07;;;11.70;99.90;;;;;;5075102;28;20437;-57
2022/03/17 10:05:53;;;;;;;44.03;31.50;;;11.60;99.90;;;;;;5075385;28;20479;-57
2022/03/17 10:08:23;;;;;;;39.03;29.37;;;11.60;99.90;;;;;;5074941;28;20559;-57
2022/03/17 10:10:52;;;;;;;36.00;28.50;;;11.60;99.90;;;;;;5075072;28;20459;-56
2022/03/17 10:13:21;;;;;;;34.57;27.93;;;11.60;99.90;;;;;;5074829;28;20480;-56
2022/03/17 10:16:05;;;;;;;38.10;29.80;;;11.60;99.90;;;;;;5074780;28;20815;-57
2022/03/17 10:18:36;;;;;;;37.77;28.63;;;11.70;99.90;;;;;;5074758;28;20551;-56
2022/03/17 10:21:08;;;;;;;43.60;30.80;;;11.80;99.90;;;;;;5074780;28;21031;-57
2022/03/17 10:23:43;;;;;;;37.20;29.53;;;11.80;99.90;;;;;;5074428;28;20424;-56
2022/03/17 10:26:11;;;;;;;42.63;30.47;;;11.60;99.90;;;;;;5074457;28;20853;-55
2022/03/17 10:28:40;;;;;;;38.33;29.27;;;11.60;99.90;;;;;;5074684;28;20475;-56
2022/03/17 10:31:08;;;;;;;38.90;28.70;;;11.80;99.90;;;;;;5074734;28;20525;-56
2022/03/17 10:33:37;;;;;;;35.53;26.67;;;12.00;99.90;;;;;;5073989;28;20990;-56
2022/03/17 10:36:15;;;;;;;37.80;28.50;;;12.10;99.90;;;;;;5074435;28;20460;-56
2022/03/17 10:38:44;;;;;;;38.07;28.10;;;12.10;99.90;;;;;;5074381;28;20532;-56
2022/03/17 10:41:12;;;;;;;36.80;27.47;;;12.20;99.90;;;;;;5074581;28;20452;-55
2022/03/17 10:43:41;;;;;;;34.57;28.10;;;12.30;99.90;;;;;;5074377;28;20471;-56
2022/03/17 10:46:11;;;;;;;34.77;26.80;;;12.50;99.90;;;;;;5073472;28;20796;-57
2022/03/17 10:51:37;;;;;;;39.60;28.23;;;12.60;99.90;;;;;;5110910;27;20574;-56
2022/03/17 10:54:07;;;;;;;35.20;29.33;;;12.60;99.90;;;;;;5110691;28;20446;-56
2022/03/17 10:56:36;;;;;;;37.33;29.13;;;12.50;99.90;;;;;;5110742;28;20435;-56
2022/03/17 10:59:05;;;;;;;35.90;27.77;;;12.40;99.90;;;;;;5110422;28;20983;-58
2022/03/17 11:01:42;;;;;;;36.33;27.37;;;12.50;99.90;;;;;;5110652;28;20444;-56
2022/03/17 11:04:10;;;;;;;31.80;26.60;;;12.40;99.90;;;;;;5110725;28;20430;-56
2022/03/17 11:06:40;;;;;;;28.67;25.00;;;12.50;99.90;;;;;;5110472;28;20466;-56
2022/03/17 11:09:09;;;;;;;29.80;23.40;;;12.60;99.90;;;;;;5110464;28;20446;-56
2022/03/17 11:11:37;;;;;;;35.63;26.70;;;12.70;99.90;;;;;;5110670;28;20438;-56
2022/03/17 11:14:06;;;;;;;35.00;28.23;;;12.80;99.90;;;;;;5110620;28;20588;-57
2022/03/17 11:16:39;;;;;;;42.13;27.43;;;12.90;99.90;;;;;;5110485;28;20450;-57
2022/03/17 11:19:12;;;;;;;42.07;26.97;;;12.80;99.90;;;;;;5110308;28;20929;-57
2022/03/17 11:21:46;;;;;;;34.63;27.27;;;12.60;99.90;;;;;;5110732;28;20509;-57
2022/03/17 11:24:20;;;;;;;35.73;27.10;;;12.60;99.90;;;;;;5110443;28;20427;-57
2022/03/17 11:26:47;;;;;;;34.00;26.37;;;12.60;99.90;;;;;;5110130;28;20497;-57
2022/03/17 11:29:17;;;;;;;42.57;28.70;;;12.50;99.90;;;;;;5109940;28;21020;-57
2022/03/17 11:31:58;;;;;;;31.23;26.17;;;12.40;99.90;;;;;;5110480;28;20987;-57
2022/03/17 11:34:47;;;;;;;33.67;26.50;;;12.40;99.90;;;;;;5110391;28;20461;-57
2022/03/17 11:37:27;;;;;;;36.77;28.13;;;12.30;99.90;;;;;;5110228;28;20463;-56
2022/03/17 11:39:56;;;;;;;38.37;28.33;;;12.30;99.90;;;;;;5110258;28;20427;-57
2022/03/17 11:42:31;;;;;;;35.23;28.40;;;12.20;99.90;;;;;;5110004;28;20450;-57
2022/03/17 11:45:03;;;;;;;38.97;29.70;;;12.10;99.90;;;;;;5110014;28;20433;-57
2022/03/17 11:47:36;;;;;;;39.97;27.30;;;12.20;99.90;;;;;;5109657;28;20498;-57
2022/03/17 11:50:22;;;;;;;36.87;30.13;;;12.00;99.90;;;;;;5109371;28;20559;-57
2022/03/17 11:52:53;;;;;;;39.57;29.63;;;12.20;99.90;;;;;;5109581;28;20897;-56
2022/03/17 11:55:38;;;;;;;40.83;29.87;;;12.30;99.90;;;;;;5109726;28;20427;-56
2022/03/17 11:58:23;;;;;;;39.10;29.60;;;12.10;99.90;;;;;;5109440;28;20460;-57
2022/03/17 12:00:53;;;;;;;42.47;30.20;;;12.10;99.90;;;;;;5107725;28;20458;-56
2022/03/17 12:03:31;;;;;;;39.40;28.83;;;12.10;99.90;;;;;;5095697;28;20960;-57
2022/03/17 12:06:13;;;;;;;38.27;29.87;;;12.10;99.90;;;;;;5096065;28;20478;-57
2022/03/17 12:08:43;;;;;;;40.80;29.27;;;12.10;99.90;;;;;;5095673;28;20487;-56
2022/03/17 12:11:13;;;;;;;42.20;32.13;;;12.00;99.90;;;;;;5095603;28;20985;-57
2022/03/17 12:13:40;;;;;;;41.03;30.00;;;11.80;99.90;;;;;;5095856;28;20926;-57
2022/03/17 12:16:08;;;;;;;42.13;31.83;;;11.90;99.90;;;;;;5095519;28;20948;-56
2022/03/17 12:19:03;;;;;;;45.43;30.90;;;11.90;99.90;;;;;;5095842;28;20550;-57
2022/03/17 12:22:07;;;;;;;40.73;30.87;;;11.90;99.90;;;;;;5095488;28;20439;-56
2022/03/17 12:24:39;;;;;;;41.57;32.60;;;12.00;99.90;;;;;;5095569;28;20447;-56
2022/03/17 12:27:11;;;;;;;42.20;30.60;;;12.10;99.90;;;;;;5095616;28;20472;-56
2022/03/17 12:29:38;;;;;;;43.70;30.73;;;12.10;99.90;;;;;;5095405;28;20428;-56
2022/03/17 12:32:07;;;;;;;44.03;30.50;;;12.10;99.90;;;;;;5095264;28;20447;-56
2022/03/17 12:34:35;;;;;;;41.23;31.43;;;12.00;99.90;;;;;;5095118;28;20444;-56
2022/03/17 12:37:04;;;;;;;37.90;27.07;;;12.10;99.90;;;;;;5095280;28;20467;-56
2022/03/17 12:39:32;;;;;;;44.67;33.37;;;12.30;99.90;;;;;;5095106;28;20562;-56
2022/03/17 12:42:01;;;;;;;35.33;30.87;;;12.40;99.90;;;;;;5095183;28;20493;-57
2022/03/17 12:44:29;;;;;;;40.57;32.33;;;12.30;99.90;;;;;;5094925;28;20448;-56
2022/03/17 12:46:57;;;;;;;41.80;31.10;;;12.40;99.90;;;;;;5094948;28;20470;-56
2022/03/17 12:49:24;;;;;;;35.60;29.17;;;12.50;99.90;;;;;;5093704;28;20466;-56
2022/03/17 12:51:51;;;;;;;37.93;30.53;;;12.50;99.90;;;;;;5094879;28;20503;-57
2022/03/17 12:54:19;;;;;;;45.37;30.30;;;12.30;99.90;;;;;;5094360;28;20490;-57
2022/03/17 12:56:51;;;;;;;48.83;31.50;;;12.10;99.90;;;;;;5094864;28;20547;-56
2022/03/17 12:59:20;;;;;;;40.00;30.17;;;12.00;99.90;;;;;;5094945;28;20447;-57